EDDE

Erfurt Airport

Erfurt, Germany
METAR EDDE 250020Z 20008KT CAVOK 12/06 Q1010
Observed Flight Rules
Apr-25 @ 00:20 UTC (37 minutes ago) Visual Flight Rules
Wind Visibility Clouds
200° at 8 knots 10,000+ meters
  • Clear skies
Temperatures Readings
Current 12°C / 54°F
Dewpoint 6°C / 43°F
Humidity 67%
Altimeter 29.82" Hg
Pressure 1010 hPa
Elevation 323
METAR EDDE 250020Z 20008KT CAVOK 12/06 Q1010
Observed Flight Rules
Apr-25 @ 00:20 UTC
(37 minutes ago)
VFR
Wind Visibility
200° at 8 knots 10,000+ meters
Clouds
  • Clear skies
Temperature Dewpoint
12°C / 54°F 6°C / 43°F
Humidity Altimeter Pressure
67% 29.82" Hg 1010 hPa